createdAt,value
2017-10-08T00:00:38.725Z,1002.98
2017-10-08T00:01:19.259Z,1002.99
2017-10-08T00:01:59.811Z,1002.92
2017-10-08T00:02:40.339Z,1002.9
2017-10-08T00:03:20.837Z,1002.88
2017-10-08T00:04:01.365Z,1002.92
2017-10-08T00:04:41.878Z,1002.95
2017-10-08T00:05:22.521Z,1002.88
2017-10-08T00:06:03.001Z,1002.92
2017-10-08T00:06:43.524Z,1002.87
2017-10-08T00:07:24.099Z,1002.86
2017-10-08T00:08:04.585Z,1002.82
2017-10-08T00:08:45.195Z,1002.87
2017-10-08T00:09:25.694Z,1002.8
2017-10-08T00:10:06.274Z,1002.73
2017-10-08T00:10:46.798Z,1002.82
2017-10-08T00:11:27.343Z,1002.79
2017-10-08T00:12:07.912Z,1002.77
2017-10-08T00:12:48.477Z,1002.84
2017-10-08T00:13:29.020Z,1002.85
2017-10-08T00:14:09.551Z,1002.79
2017-10-08T00:14:50.084Z,1002.8
2017-10-08T00:15:30.627Z,1002.82
2017-10-08T00:16:11.143Z,1002.8
2017-10-08T00:16:51.670Z,1002.82
2017-10-08T00:17:32.223Z,1002.8
2017-10-08T00:18:12.883Z,1002.74
2017-10-08T00:18:53.334Z,1002.75
2017-10-08T00:19:33.841Z,1002.78
2017-10-08T00:20:14.387Z,1002.84
2017-10-08T00:20:54.897Z,1002.77
2017-10-08T00:21:35.430Z,1002.82
2017-10-08T00:22:15.998Z,1002.84
2017-10-08T00:22:56.541Z,1002.81
2017-10-08T00:23:37.104Z,1002.73
2017-10-08T00:24:17.652Z,1002.72
2017-10-08T00:24:58.204Z,1002.72
2017-10-08T00:25:38.698Z,1002.73
2017-10-08T00:26:19.231Z,1002.73
2017-10-08T00:26:59.784Z,1002.66
2017-10-08T00:27:40.276Z,1002.76
2017-10-08T00:28:20.814Z,1002.75
2017-10-08T00:29:01.372Z,1002.76
2017-10-08T00:29:41.955Z,1002.77
2017-10-08T00:30:22.435Z,1002.74
2017-10-08T00:31:03.002Z,1002.74
2017-10-08T00:31:43.540Z,1002.74
2017-10-08T00:32:24.083Z,1002.73
2017-10-08T00:33:04.572Z,1002.81
2017-10-08T00:33:45.106Z,1002.81
2017-10-08T00:34:25.665Z,1002.77
2017-10-08T00:35:06.201Z,1002.83
2017-10-08T00:35:46.751Z,1002.82
2017-10-08T00:36:27.320Z,1002.84
2017-10-08T00:37:07.835Z,1002.76
2017-10-08T00:37:48.366Z,1002.81
2017-10-08T00:38:28.916Z,1002.84
2017-10-08T00:39:09.449Z,1002.81
2017-10-08T00:39:50.006Z,1002.8
2017-10-08T00:40:30.503Z,1002.77
2017-10-08T00:41:11.103Z,1002.82
2017-10-08T00:41:51.616Z,1002.79
2017-10-08T00:42:32.163Z,1002.79
2017-10-08T00:43:12.694Z,1002.84
2017-10-08T00:43:53.206Z,1002.78
2017-10-08T00:44:33.765Z,1002.81
2017-10-08T00:45:14.250Z,1002.83
2017-10-08T00:45:54.905Z,1002.82
2017-10-08T00:46:35.384Z,1002.79
2017-10-08T00:47:15.932Z,1002.83
2017-10-08T00:47:56.490Z,1002.82
2017-10-08T00:48:37.025Z,1002.76
2017-10-08T00:49:17.599Z,1002.81
2017-10-08T00:49:58.113Z,1002.83
2017-10-08T00:50:38.673Z,1002.83
2017-10-08T00:51:19.253Z,1002.8
2017-10-08T00:51:59.749Z,1002.82
2017-10-08T00:52:40.327Z,1002.76
2017-10-08T00:53:20.908Z,1002.75
2017-10-08T00:54:01.449Z,1002.71
2017-10-08T00:54:41.971Z,1002.69
2017-10-08T00:55:22.572Z,1002.63
2017-10-08T00:56:03.164Z,1002.64
2017-10-08T00:56:43.679Z,1002.67
2017-10-08T00:57:24.200Z,1002.7
2017-10-08T00:58:04.720Z,1002.72
2017-10-08T00:58:45.240Z,1002.72
2017-10-08T00:59:25.781Z,1002.73
2017-10-08T01:00:06.289Z,1002.7
2017-10-08T01:00:46.876Z,1002.69
2017-10-08T01:01:27.388Z,1002.74
2017-10-08T01:02:07.936Z,1002.72
2017-10-08T01:02:48.491Z,1002.67
2017-10-08T01:03:28.975Z,1002.68
2017-10-08T01:04:09.539Z,1002.69
2017-10-08T01:04:50.087Z,1002.7
2017-10-08T01:05:30.616Z,1002.74
2017-10-08T01:06:11.141Z,1002.68
2017-10-08T01:06:51.695Z,1002.72
2017-10-08T01:07:32.292Z,1002.68
2017-10-08T01:08:12.800Z,1002.64
2017-10-08T01:08:53.356Z,1002.71
2017-10-08T01:09:33.903Z,1002.7
2017-10-08T01:10:14.432Z,1002.7
2017-10-08T01:10:54.986Z,1002.69
2017-10-08T01:11:35.550Z,1002.65
2017-10-08T01:12:16.074Z,1002.67
2017-10-08T01:12:56.608Z,1002.71
2017-10-08T01:13:37.119Z,1002.73
2017-10-08T01:14:17.616Z,1002.65
2017-10-08T01:14:58.140Z,1002.66
2017-10-08T01:15:38.730Z,1002.64
2017-10-08T01:16:19.276Z,1002.62
2017-10-08T01:16:59.779Z,1002.65
2017-10-08T01:17:40.530Z,1002.59
2017-10-08T01:18:21.053Z,1002.54
2017-10-08T01:19:01.586Z,1002.54
2017-10-08T01:19:42.162Z,1002.64
2017-10-08T01:20:22.673Z,1002.58
2017-10-08T01:21:03.254Z,1002.56
2017-10-08T01:21:43.773Z,1002.58
2017-10-08T01:22:24.319Z,1002.56
2017-10-08T01:23:04.874Z,1002.62
2017-10-08T01:23:45.380Z,1002.64
2017-10-08T01:24:25.981Z,1002.6
2017-10-08T01:25:06.516Z,1002.57
2017-10-08T01:25:47.069Z,1002.54
2017-10-08T01:26:27.569Z,1002.5
2017-10-08T01:27:08.155Z,1002.5
2017-10-08T01:27:48.663Z,1002.56
2017-10-08T01:28:29.201Z,1002.59
2017-10-08T01:29:09.738Z,1002.59
2017-10-08T01:29:50.252Z,1002.57
2017-10-08T01:30:30.820Z,1002.69
2017-10-08T01:31:11.336Z,1002.56
2017-10-08T01:31:51.872Z,1002.58
2017-10-08T01:32:32.409Z,1002.6
2017-10-08T01:33:12.989Z,1002.55
2017-10-08T01:33:53.575Z,1002.52
2017-10-08T01:34:34.181Z,1002.55
2017-10-08T01:35:14.725Z,1002.53
2017-10-08T01:35:55.232Z,1002.51
2017-10-08T01:36:35.791Z,1002.51
2017-10-08T01:37:16.375Z,1002.42
2017-10-08T01:37:57.006Z,1002.5
2017-10-08T01:38:37.517Z,1002.47
2017-10-08T01:39:18.097Z,1002.56
2017-10-08T01:39:58.642Z,1002.59
2017-10-08T01:40:39.228Z,1002.55
2017-10-08T01:41:19.794Z,1002.55
2017-10-08T01:42:00.313Z,1002.48
2017-10-08T01:42:40.965Z,1002.51
2017-10-08T01:43:21.416Z,1002.5
2017-10-08T01:44:01.946Z,1002.45
2017-10-08T01:44:42.519Z,1002.55
2017-10-08T01:45:23.067Z,1002.6
2017-10-08T01:46:03.595Z,1002.57
2017-10-08T01:46:44.186Z,1002.62
2017-10-08T01:47:24.689Z,1002.62
2017-10-08T01:48:05.299Z,1002.66
2017-10-08T01:48:46.013Z,1002.62
2017-10-08T01:49:26.462Z,1002.69
2017-10-08T01:50:07.062Z,1002.67
2017-10-08T01:50:47.507Z,1002.55
2017-10-08T01:51:28.202Z,1002.6
2017-10-08T01:52:09.070Z,1002.56
2017-10-08T01:52:49.343Z,1002.61
2017-10-08T01:53:29.771Z,1002.61
2017-10-08T01:54:10.339Z,1002.62
2017-10-08T01:54:50.893Z,1002.61
2017-10-08T01:55:31.453Z,1002.58
2017-10-08T01:56:11.998Z,1002.56
2017-10-08T01:56:52.776Z,1002.62
2017-10-08T01:57:33.329Z,1002.62
2017-10-08T01:58:13.792Z,1002.59
2017-10-08T01:58:54.294Z,1002.73
2017-10-08T01:59:34.868Z,1002.69
2017-10-08T02:00:15.537Z,1002.69
2017-10-08T02:00:56.070Z,1002.7
2017-10-08T02:01:36.588Z,1002.65
2017-10-08T02:02:17.149Z,1002.68
2017-10-08T02:02:57.655Z,1002.65
2017-10-08T02:03:38.250Z,1002.76
2017-10-08T02:04:18.734Z,1002.76
2017-10-08T02:04:59.355Z,1002.7
2017-10-08T02:05:39.846Z,1002.72
2017-10-08T02:06:20.348Z,1002.78
2017-10-08T02:07:00.906Z,1002.77
2017-10-08T02:07:41.462Z,1002.78
2017-10-08T02:08:22.056Z,1002.79
2017-10-08T02:09:02.586Z,1002.72
2017-10-08T02:09:43.120Z,1002.72
2017-10-08T02:10:23.718Z,1002.74
2017-10-08T02:11:04.248Z,1002.73
2017-10-08T02:11:44.815Z,1002.79
2017-10-08T02:12:25.339Z,1002.81
2017-10-08T02:13:05.902Z,1002.77
2017-10-08T02:13:46.388Z,1002.74
2017-10-08T02:14:26.958Z,1002.73
2017-10-08T02:15:07.468Z,1002.7
2017-10-08T02:15:48.034Z,1002.71
2017-10-08T02:16:28.682Z,1002.79
2017-10-08T02:17:09.249Z,1002.72
2017-10-08T02:17:49.813Z,1002.7
2017-10-08T02:18:30.364Z,1002.7
2017-10-08T02:19:10.885Z,1002.65
2017-10-08T02:19:51.399Z,1002.71
2017-10-08T02:20:31.981Z,1002.7
2017-10-08T02:21:12.537Z,1002.65
2017-10-08T02:21:53.035Z,1002.63
2017-10-08T02:22:33.619Z,1002.67
2017-10-08T02:23:14.210Z,1002.73
2017-10-08T02:23:54.782Z,1002.71
2017-10-08T02:24:35.305Z,1002.69
2017-10-08T02:25:15.898Z,1002.65
2017-10-08T02:25:56.405Z,1002.67
2017-10-08T02:26:36.874Z,1002.7
2017-10-08T02:27:17.487Z,1002.67
2017-10-08T02:27:57.999Z,1002.66
2017-10-08T02:28:38.561Z,1002.65
2017-10-08T02:29:19.117Z,1002.66
2017-10-08T02:29:59.649Z,1002.7
2017-10-08T02:30:40.203Z,1002.68
2017-10-08T02:31:20.720Z,1002.67
2017-10-08T02:32:01.295Z,1002.71
2017-10-08T02:32:41.832Z,1002.71
2017-10-08T02:33:22.414Z,1002.73
2017-10-08T02:34:02.922Z,1002.69
2017-10-08T02:34:43.507Z,1002.71
2017-10-08T02:35:24.069Z,1002.67
2017-10-08T02:36:04.597Z,1002.72
2017-10-08T02:36:45.109Z,1002.73
2017-10-08T02:37:25.641Z,1002.72
2017-10-08T02:38:06.194Z,1002.71
2017-10-08T02:38:46.751Z,1002.69
2017-10-08T02:39:27.240Z,1002.74
2017-10-08T02:40:07.846Z,1002.75
2017-10-08T02:40:48.365Z,1002.73
2017-10-08T02:41:28.882Z,1002.74
2017-10-08T02:42:09.425Z,1002.78
2017-10-08T02:42:49.915Z,1002.69
2017-10-08T02:43:30.456Z,1002.81
2017-10-08T02:44:11.019Z,1002.77
2017-10-08T02:44:51.524Z,1002.79
2017-10-08T02:45:32.201Z,1002.81
2017-10-08T02:46:12.714Z,1002.75
2017-10-08T02:46:53.215Z,1002.84
2017-10-08T02:47:33.749Z,1002.8
2017-10-08T02:48:14.299Z,1002.78
2017-10-08T02:48:54.846Z,1002.74
2017-10-08T02:49:35.372Z,1002.87
2017-10-08T02:50:15.926Z,1002.81
2017-10-08T02:50:56.396Z,1002.83
2017-10-08T02:51:36.945Z,1002.85
2017-10-08T02:52:17.554Z,1002.82
2017-10-08T02:52:58.061Z,1002.8
2017-10-08T02:53:38.565Z,1002.83
2017-10-08T02:54:19.096Z,1002.83
2017-10-08T02:54:59.617Z,1002.82
2017-10-08T02:55:40.142Z,1002.84
2017-10-08T02:56:20.645Z,1002.83
2017-10-08T02:57:01.232Z,1002.83
2017-10-08T02:57:41.745Z,1002.77
2017-10-08T02:58:22.281Z,1002.8
2017-10-08T02:59:02.784Z,1002.79
2017-10-08T02:59:43.381Z,1002.79
2017-10-08T03:00:23.895Z,1002.77
2017-10-08T03:01:04.596Z,1002.77
2017-10-08T03:01:45.125Z,1002.81
2017-10-08T03:02:25.692Z,1002.8
2017-10-08T03:03:06.235Z,1002.79
2017-10-08T03:03:46.779Z,1002.84
2017-10-08T03:04:27.307Z,1002.83
2017-10-08T03:05:07.896Z,1002.86
2017-10-08T03:05:48.397Z,1002.86
2017-10-08T03:06:28.895Z,1002.89
2017-10-08T03:07:09.477Z,1002.95
2017-10-08T03:07:50.005Z,1002.99
2017-10-08T03:08:30.570Z,1002.97
2017-10-08T03:09:11.051Z,1002.95
2017-10-08T03:09:51.610Z,1002.96
2017-10-08T03:10:32.152Z,1002.99
2017-10-08T03:11:12.683Z,1002.96
2017-10-08T03:11:53.331Z,1002.87
2017-10-08T03:12:33.826Z,1002.9
2017-10-08T03:13:14.413Z,1002.92
2017-10-08T03:13:55.004Z,1002.95
2017-10-08T03:14:35.538Z,1002.9
2017-10-08T03:15:16.060Z,1002.88
2017-10-08T03:15:56.622Z,1002.89
2017-10-08T03:16:37.118Z,1002.96
2017-10-08T03:17:17.656Z,1002.96
2017-10-08T03:17:58.184Z,1002.94
2017-10-08T03:18:38.694Z,1002.95
2017-10-08T03:19:19.244Z,1002.97
2017-10-08T03:19:59.750Z,1002.95
2017-10-08T03:20:40.344Z,1002.97
2017-10-08T03:21:20.858Z,1002.95
2017-10-08T03:22:01.391Z,1002.99
2017-10-08T03:22:41.988Z,1002.94
2017-10-08T03:23:22.498Z,1002.95
2017-10-08T03:24:03.090Z,1002.93
2017-10-08T03:24:43.596Z,1002.95
2017-10-08T03:25:24.126Z,1002.92
2017-10-08T03:26:04.642Z,1002.95
2017-10-08T03:26:45.179Z,1002.9
2017-10-08T03:27:25.736Z,1002.91
2017-10-08T03:28:06.253Z,1002.91
2017-10-08T03:28:46.792Z,1002.9
2017-10-08T03:29:27.335Z,1002.92
2017-10-08T03:30:07.912Z,1002.91
2017-10-08T03:30:48.479Z,1002.89
2017-10-08T03:31:29.054Z,1002.9
2017-10-08T03:32:09.522Z,1002.91
2017-10-08T03:32:50.110Z,1002.94
2017-10-08T03:33:30.652Z,1002.94
2017-10-08T03:34:11.245Z,1002.91
2017-10-08T03:34:51.759Z,1002.94
2017-10-08T03:35:32.325Z,1002.95
2017-10-08T03:36:12.840Z,1002.94
2017-10-08T03:36:53.420Z,1002.95
2017-10-08T03:37:33.945Z,1002.95
2017-10-08T03:38:16.505Z,1002.97
2017-10-08T03:38:57.049Z,1002.98
2017-10-08T03:39:37.609Z,1003.02
2017-10-08T03:40:18.195Z,1003.04
2017-10-08T03:40:58.638Z,1002.99
2017-10-08T03:41:39.179Z,1002.98
2017-10-08T03:42:19.739Z,1003.01
2017-10-08T03:43:00.215Z,1002.99
2017-10-08T03:43:40.799Z,1002.99
2017-10-08T03:44:21.333Z,1002.96
2017-10-08T03:45:01.893Z,1003.01
2017-10-08T03:45:42.443Z,1002.96
2017-10-08T03:46:23.007Z,1002.94
2017-10-08T03:47:03.619Z,1003.01
2017-10-08T03:47:44.137Z,1002.99
2017-10-08T03:48:24.655Z,1002.97
2017-10-08T03:49:05.173Z,1002.95
2017-10-08T03:49:45.715Z,1002.95
2017-10-08T03:50:26.296Z,1002.95
2017-10-08T03:51:06.848Z,1003
2017-10-08T03:51:47.379Z,1002.95
2017-10-08T03:52:27.967Z,1002.95
2017-10-08T03:53:08.488Z,1003
2017-10-08T03:53:48.978Z,1003
2017-10-08T03:54:29.531Z,1002.98
2017-10-08T03:55:10.133Z,1002.98
2017-10-08T03:55:50.686Z,1003
2017-10-08T03:56:31.163Z,1003.05
2017-10-08T03:57:11.708Z,1003.04
2017-10-08T03:57:52.260Z,1003.03
2017-10-08T03:58:32.823Z,1003.02
2017-10-08T03:59:13.353Z,1003.06
2017-10-08T03:59:53.972Z,1003.05
2017-10-08T04:00:34.446Z,1003.06
2017-10-08T04:01:14.996Z,1003.1
2017-10-08T04:01:55.568Z,1003.11
2017-10-08T04:02:36.105Z,1003.11
2017-10-08T04:03:16.665Z,1003.1
2017-10-08T04:03:57.222Z,1003.1
2017-10-08T04:04:37.700Z,1003.13
2017-10-08T04:05:18.230Z,1003.2
2017-10-08T04:05:58.855Z,1003.18
2017-10-08T04:06:39.318Z,1003.2
2017-10-08T04:07:19.889Z,1003.22
2017-10-08T04:08:00.479Z,1003.16
2017-10-08T04:08:40.998Z,1003.22
2017-10-08T04:09:21.549Z,1003.22
2017-10-08T04:10:02.008Z,1003.24
2017-10-08T04:10:42.604Z,1003.24
2017-10-08T04:11:23.147Z,1003.22
2017-10-08T04:12:03.683Z,1003.22
2017-10-08T04:12:44.214Z,1003.2
2017-10-08T04:13:24.763Z,1003.23
2017-10-08T04:14:05.289Z,1003.18
2017-10-08T04:14:45.838Z,1003.2
2017-10-08T04:15:26.391Z,1003.24
2017-10-08T04:16:06.917Z,1003.24
2017-10-08T04:16:47.486Z,1003.25
2017-10-08T04:17:27.993Z,1003.26
2017-10-08T04:18:08.509Z,1003.24
2017-10-08T04:18:49.030Z,1003.29
2017-10-08T04:19:29.568Z,1003.27
2017-10-08T04:20:10.092Z,1003.26
2017-10-08T04:20:50.595Z,1003.3
2017-10-08T04:21:31.194Z,1003.33
2017-10-08T04:22:11.676Z,1003.24
2017-10-08T04:22:52.230Z,1003.21
2017-10-08T04:23:32.780Z,1003.21
2017-10-08T04:24:13.275Z,1003.27
2017-10-08T04:24:53.796Z,1003.25
2017-10-08T04:25:34.387Z,1003.24
2017-10-08T04:26:14.948Z,1003.28
2017-10-08T04:26:55.494Z,1003.22
2017-10-08T04:27:36.033Z,1003.23
2017-10-08T04:28:16.527Z,1003.26
2017-10-08T04:28:57.082Z,1003.22
2017-10-08T04:29:37.660Z,1003.26
2017-10-08T04:30:18.158Z,1003.27
2017-10-08T04:30:58.754Z,1003.3
2017-10-08T04:31:39.315Z,1003.32
2017-10-08T04:32:19.825Z,1003.27
2017-10-08T04:33:00.293Z,1003.33
2017-10-08T04:33:40.890Z,1003.31
2017-10-08T04:34:21.399Z,1003.35
2017-10-08T04:35:01.991Z,1003.37
2017-10-08T04:35:42.493Z,1003.37
2017-10-08T04:36:22.952Z,1003.38
2017-10-08T04:37:03.563Z,1003.36
2017-10-08T04:37:44.146Z,1003.37
2017-10-08T04:38:24.650Z,1003.37
2017-10-08T04:39:05.196Z,1003.33
2017-10-08T04:39:45.740Z,1003.36
2017-10-08T04:40:26.318Z,1003.34
2017-10-08T04:41:06.802Z,1003.34
2017-10-08T04:41:47.348Z,1003.37
2017-10-08T04:42:27.895Z,1003.33
2017-10-08T04:43:08.437Z,1003.36
2017-10-08T04:43:48.958Z,1003.34
2017-10-08T04:44:29.501Z,1003.37
2017-10-08T04:45:10.034Z,1003.36
2017-10-08T04:45:50.570Z,1003.4
2017-10-08T04:46:31.098Z,1003.42
2017-10-08T04:47:11.634Z,1003.44
2017-10-08T04:47:52.192Z,1003.43
2017-10-08T04:48:32.751Z,1003.43
2017-10-08T04:49:13.292Z,1003.45
2017-10-08T04:49:53.859Z,1003.43
2017-10-08T04:50:34.368Z,1003.39
2017-10-08T04:51:14.914Z,1003.41
2017-10-08T04:51:55.414Z,1003.44
2017-10-08T04:52:35.976Z,1003.36
2017-10-08T04:53:16.496Z,1003.35
2017-10-08T04:53:57.022Z,1003.4
2017-10-08T04:54:37.747Z,1003.37
2017-10-08T04:55:18.220Z,1003.43
2017-10-08T04:55:58.696Z,1003.41
2017-10-08T04:56:39.251Z,1003.44
2017-10-08T04:57:19.805Z,1003.43
2017-10-08T04:58:00.273Z,1003.47
2017-10-08T04:58:40.859Z,1003.51
2017-10-08T04:59:21.372Z,1003.48
2017-10-08T05:00:01.904Z,1003.5
2017-10-08T05:00:42.470Z,1003.46
2017-10-08T05:01:22.999Z,1003.53
2017-10-08T05:02:03.583Z,1003.46
2017-10-08T05:02:44.121Z,1003.57
2017-10-08T05:03:24.708Z,1003.5
2017-10-08T05:04:05.194Z,1003.58
2017-10-08T05:04:45.755Z,1003.52
2017-10-08T05:05:26.318Z,1003.54
2017-10-08T05:06:06.787Z,1003.57
2017-10-08T05:06:47.319Z,1003.48
2017-10-08T05:07:27.868Z,1003.51
2017-10-08T05:08:08.379Z,1003.49
2017-10-08T05:08:48.955Z,1003.53
2017-10-08T05:09:29.561Z,1003.49
2017-10-08T05:10:10.169Z,1003.4
2017-10-08T05:10:50.695Z,1003.36
2017-10-08T05:11:31.227Z,1003.47
2017-10-08T05:12:11.731Z,1003.44
2017-10-08T05:12:52.287Z,1003.43
2017-10-08T05:13:32.803Z,1003.47
2017-10-08T05:14:13.339Z,1003.42
2017-10-08T05:14:53.847Z,1003.45
2017-10-08T05:15:34.380Z,1003.48
2017-10-08T05:16:14.924Z,1003.5
2017-10-08T05:16:55.454Z,1003.48
2017-10-08T05:17:35.958Z,1003.51
2017-10-08T05:18:16.474Z,1003.53
2017-10-08T05:18:57.130Z,1003.47
2017-10-08T05:19:37.627Z,1003.51
2017-10-08T05:20:18.251Z,1003.51
2017-10-08T05:20:58.768Z,1003.52
2017-10-08T05:21:39.251Z,1003.49
2017-10-08T05:22:19.813Z,1003.49
2017-10-08T05:23:00.314Z,1003.53
2017-10-08T05:23:40.904Z,1003.57
2017-10-08T05:24:21.418Z,1003.52
2017-10-08T05:25:01.971Z,1003.51
2017-10-08T05:25:42.511Z,1003.53
2017-10-08T05:26:23.034Z,1003.51
2017-10-08T05:27:03.579Z,1003.57
2017-10-08T05:27:44.146Z,1003.53
2017-10-08T05:28:24.665Z,1003.55
2017-10-08T05:29:05.209Z,1003.59
2017-10-08T05:29:45.757Z,1003.66
2017-10-08T05:30:26.331Z,1003.63
2017-10-08T05:31:06.801Z,1003.62
2017-10-08T05:31:47.394Z,1003.65
2017-10-08T05:32:27.936Z,1003.67
2017-10-08T05:33:08.549Z,1003.7
2017-10-08T05:33:49.112Z,1003.7
2017-10-08T05:34:29.577Z,1003.69
2017-10-08T05:35:10.179Z,1003.7
2017-10-08T05:35:50.719Z,1003.71
2017-10-08T05:36:31.200Z,1003.72
2017-10-08T05:37:11.751Z,1003.75
2017-10-08T05:37:52.297Z,1003.79
2017-10-08T05:38:32.874Z,1003.77
2017-10-08T05:39:13.372Z,1003.78
2017-10-08T05:39:53.899Z,1003.72
2017-10-08T05:40:34.480Z,1003.69
2017-10-08T05:41:15.032Z,1003.74
2017-10-08T05:41:55.528Z,1003.8
2017-10-08T05:42:36.100Z,1003.77
2017-10-08T05:43:16.605Z,1003.84
2017-10-08T05:43:57.190Z,1003.8
2017-10-08T05:44:37.679Z,1003.82
2017-10-08T05:45:18.240Z,1003.79
2017-10-08T05:45:58.773Z,1003.8
2017-10-08T05:46:39.353Z,1003.83
2017-10-08T05:47:19.922Z,1003.82
2017-10-08T05:48:00.433Z,1003.79
2017-10-08T05:48:40.978Z,1003.8
2017-10-08T05:49:21.500Z,1003.82
2017-10-08T05:50:02.006Z,1003.85
2017-10-08T05:50:42.567Z,1003.87
2017-10-08T05:51:23.153Z,1003.91
2017-10-08T05:52:03.712Z,1003.92
2017-10-08T05:52:44.239Z,1003.88
2017-10-08T05:53:24.784Z,1003.91
2017-10-08T05:54:05.299Z,1003.91
2017-10-08T05:54:45.849Z,1003.91
2017-10-08T05:55:26.351Z,1003.92
2017-10-08T05:56:06.960Z,1003.96
2017-10-08T05:56:47.482Z,1003.92
2017-10-08T05:57:28.052Z,1003.9
2017-10-08T05:58:08.557Z,1003.94
2017-10-08T05:58:49.099Z,1003.92
2017-10-08T05:59:29.590Z,1003.94
2017-10-08T06:00:10.167Z,1003.99
2017-10-08T06:00:50.666Z,1003.99
2017-10-08T06:01:31.214Z,1003.97
2017-10-08T06:02:11.747Z,1003.97
2017-10-08T06:02:52.292Z,1003.99
2017-10-08T06:03:33.055Z,1004
2017-10-08T06:04:13.604Z,1003.98
2017-10-08T06:04:54.120Z,1004.01
2017-10-08T06:05:34.711Z,1004.02
2017-10-08T06:06:15.216Z,1004.01
2017-10-08T06:06:55.799Z,1004.03
2017-10-08T06:07:36.320Z,1004.02
2017-10-08T06:08:16.880Z,1003.99
2017-10-08T06:08:57.405Z,1004.03
2017-10-08T06:09:37.904Z,1004.04
2017-10-08T06:10:18.462Z,1004.06
2017-10-08T06:10:58.977Z,1004.03
2017-10-08T06:11:39.514Z,1004.04
2017-10-08T06:12:20.045Z,1004.06
2017-10-08T06:13:00.602Z,1004.05
2017-10-08T06:13:41.224Z,1004.1
2017-10-08T06:14:21.727Z,1004.01
2017-10-08T06:15:02.272Z,1004.11
2017-10-08T06:15:42.775Z,1004.1
2017-10-08T06:16:23.272Z,1004.09
2017-10-08T06:17:03.794Z,1004.09
2017-10-08T06:17:44.313Z,1004.1
2017-10-08T06:18:24.843Z,1004.11
2017-10-08T06:19:05.397Z,1004.11
2017-10-08T06:19:45.950Z,1004.1
2017-10-08T06:20:26.520Z,1004.13
2017-10-08T06:21:07.014Z,1004.13
2017-10-08T06:21:47.568Z,1004.1
2017-10-08T06:22:28.134Z,1004.1
2017-10-08T06:23:08.680Z,1004.09
2017-10-08T06:23:49.163Z,1004.12
2017-10-08T06:24:29.724Z,1004.11
2017-10-08T06:25:10.279Z,1004.13
2017-10-08T06:25:50.805Z,1004.08
2017-10-08T06:26:31.339Z,1004.1
2017-10-08T06:27:11.965Z,1004.15
2017-10-08T06:27:52.422Z,1004.14
2017-10-08T06:28:33.010Z,1004.13
2017-10-08T06:29:13.557Z,1004.12
2017-10-08T06:29:54.229Z,1004.16
2017-10-08T06:30:34.781Z,1004.13
2017-10-08T06:31:15.312Z,1004.14
2017-10-08T06:31:55.840Z,1004.18
2017-10-08T06:32:36.388Z,1004.19
2017-10-08T06:33:16.953Z,1004.2
2017-10-08T06:33:57.611Z,1004.18
2017-10-08T06:34:38.138Z,1004.22
2017-10-08T06:35:18.833Z,1004.24
2017-10-08T06:35:59.537Z,1004.26
2017-10-08T06:36:40.100Z,1004.24
2017-10-08T06:37:20.668Z,1004.26
2017-10-08T06:38:01.185Z,1004.3
2017-10-08T06:38:41.780Z,1004.3
2017-10-08T06:39:22.310Z,1004.33
2017-10-08T06:40:02.817Z,1004.32
2017-10-08T06:40:43.384Z,1004.29
2017-10-08T06:41:23.939Z,1004.3
2017-10-08T06:42:04.538Z,1004.32
2017-10-08T06:42:45.079Z,1004.28
2017-10-08T06:43:25.576Z,1004.31
2017-10-08T06:44:06.175Z,1004.25
2017-10-08T06:44:46.745Z,1004.35
2017-10-08T06:45:27.280Z,1004.33
2017-10-08T06:46:07.818Z,1004.34
2017-10-08T06:46:48.391Z,1004.34
2017-10-08T06:47:28.926Z,1004.37
2017-10-08T06:48:09.516Z,1004.34
2017-10-08T06:48:50.007Z,1004.34
2017-10-08T06:49:30.568Z,1004.35
2017-10-08T06:50:11.146Z,1004.34
2017-10-08T06:50:51.648Z,1004.29
2017-10-08T06:51:32.186Z,1004.32
2017-10-08T06:52:12.727Z,1004.33
2017-10-08T06:52:53.278Z,1004.37
2017-10-08T06:53:33.813Z,1004.32
2017-10-08T06:54:14.340Z,1004.37
2017-10-08T06:54:54.878Z,1004.42
2017-10-08T06:55:35.569Z,1004.39
2017-10-08T06:56:16.021Z,1004.42
2017-10-08T06:56:56.531Z,1004.4
2017-10-08T06:57:37.076Z,1004.42
2017-10-08T06:58:17.607Z,1004.4
2017-10-08T06:58:58.355Z,1004.47
2017-10-08T06:59:38.984Z,1004.47
2017-10-08T07:00:19.559Z,1004.5
2017-10-08T07:01:00.085Z,1004.53
2017-10-08T07:01:40.649Z,1004.5
2017-10-08T07:02:21.241Z,1004.54
2017-10-08T07:03:01.847Z,1004.58
2017-10-08T07:03:42.380Z,1004.6
2017-10-08T07:04:22.867Z,1004.55
2017-10-08T07:05:03.497Z,1004.61
2017-10-08T07:05:44.179Z,1004.61
2017-10-08T07:06:24.744Z,1004.69
2017-10-08T07:07:05.344Z,1004.6
2017-10-08T07:07:45.932Z,1004.6
2017-10-08T07:08:26.432Z,1004.65
2017-10-08T07:09:06.984Z,1004.65
2017-10-08T07:09:47.537Z,1004.67
2017-10-08T07:10:28.423Z,1004.69
2017-10-08T07:11:08.947Z,1004.7
2017-10-08T07:11:49.549Z,1004.65
2017-10-08T07:12:30.039Z,1004.66
2017-10-08T07:13:10.630Z,1004.73
2017-10-08T07:13:51.347Z,1004.65
2017-10-08T07:14:31.880Z,1004.68
2017-10-08T07:15:12.498Z,1004.7
2017-10-08T07:15:52.997Z,1004.71
2017-10-08T07:16:33.532Z,1004.7
2017-10-08T07:17:14.082Z,1004.68
2017-10-08T07:17:54.599Z,1004.76
2017-10-08T07:18:35.170Z,1004.75
2017-10-08T07:19:15.684Z,1004.75
2017-10-08T07:19:56.230Z,1004.75
2017-10-08T07:20:36.813Z,1004.7
2017-10-08T07:21:17.338Z,1004.74
2017-10-08T07:21:57.879Z,1004.77
2017-10-08T07:22:38.433Z,1004.79
2017-10-08T07:23:19.034Z,1004.78
2017-10-08T07:23:59.598Z,1004.76
2017-10-08T07:24:40.208Z,1004.75
2017-10-08T07:25:20.790Z,1004.85
2017-10-08T07:26:01.346Z,1004.81
2017-10-08T07:26:41.873Z,1004.88
2017-10-08T07:27:22.390Z,1004.85
2017-10-08T07:28:02.985Z,1004.82
2017-10-08T07:28:43.528Z,1004.78
2017-10-08T07:29:24.135Z,1004.82
2017-10-08T07:30:04.647Z,1004.85
2017-10-08T07:30:45.233Z,1004.82
2017-10-08T07:31:25.815Z,1004.86
2017-10-08T07:32:06.404Z,1004.84
2017-10-08T07:32:46.939Z,1004.87
2017-10-08T07:33:27.494Z,1004.9
2017-10-08T07:34:08.056Z,1004.88
2017-10-08T07:34:48.679Z,1004.91
2017-10-08T07:35:29.228Z,1004.89
2017-10-08T07:36:09.853Z,1004.92
2017-10-08T07:36:50.350Z,1004.9
2017-10-08T07:37:31.148Z,1004.93
2017-10-08T07:38:11.692Z,1004.95
2017-10-08T07:38:52.208Z,1004.99
2017-10-08T07:39:33.922Z,1004.96
2017-10-08T07:40:15.952Z,1005
2017-10-08T07:40:57.123Z,1005
2017-10-08T07:41:38.386Z,1005.01
2017-10-08T07:42:19.177Z,1004.98
2017-10-08T07:43:00.249Z,1005.02
2017-10-08T07:43:40.776Z,1005.02
2017-10-08T07:44:21.341Z,1005.06
2017-10-08T07:45:01.995Z,1005.11
2017-10-08T07:45:42.571Z,1005.05
2017-10-08T07:48:03.143Z,1005.07
2017-10-08T07:48:43.924Z,1005.11
2017-10-08T07:49:24.543Z,1005.05
2017-10-08T07:50:07.721Z,1005.15
2017-10-08T07:50:48.490Z,1005.08
2017-10-08T07:51:29.060Z,1005.12
2017-10-08T07:54:04.193Z,1005.17
2017-10-08T07:54:44.821Z,1005.16
2017-10-08T07:55:26.830Z,1005.18
2017-10-08T07:56:10.608Z,1005.2
2017-10-08T07:56:51.232Z,1005.15
2017-10-08T07:57:31.732Z,1005.15
2017-10-08T07:58:12.387Z,1005.16
2017-10-08T07:58:52.971Z,1005.22
2017-10-08T07:59:33.503Z,1005.22
2017-10-08T08:00:14.585Z,1005.16
2017-10-08T08:00:55.154Z,1005.23
2017-10-08T08:01:35.694Z,1005.23
2017-10-08T08:02:16.267Z,1005.18
2017-10-08T08:02:56.792Z,1005.21
2017-10-08T08:03:37.453Z,1005.22
2017-10-08T08:04:17.985Z,1005.22
2017-10-08T08:04:58.471Z,1005.21
2017-10-08T08:05:39.184Z,1005.3
2017-10-08T08:06:19.775Z,1005.21
2017-10-08T08:07:00.434Z,1005.24
2017-10-08T08:07:40.942Z,1005.25
2017-10-08T08:08:21.503Z,1005.25
2017-10-08T08:09:02.017Z,1005.25
2017-10-08T08:09:42.623Z,1005.3
2017-10-08T08:10:23.081Z,1005.24
2017-10-08T08:11:03.858Z,1005.23
2017-10-08T08:11:44.473Z,1005.24
2017-10-08T08:12:24.983Z,1005.27
2017-10-08T08:13:05.563Z,1005.28
2017-10-08T08:13:46.356Z,1005.29
2017-10-08T08:14:27.243Z,1005.34
2017-10-08T08:15:08.279Z,1005.32
2017-10-08T08:15:48.823Z,1005.29
2017-10-08T08:16:29.431Z,1005.3
2017-10-08T08:17:09.938Z,1005.28